Coalisland, United Kingdom
Current Conditions -  °F | °C
As of 2:20 AM on Sunday 21 Dec 2014 (Local Time) from EGAA Reporting Station
Broken Clouds Broken Clouds  
Wind Chill: 38°   Ceiling: 2800
Heat Index: 45°   Visibility: 6mi
Dew Point: 43°   Wind: 14mph
Humidity: 93%   Direction: 220°SW
Pressure: 30.18"   Gusts: NA
Location:  54.54°N, 6.7°W
Report Text: EGAA 210220Z 22012KT 9999 BKN028 07/06 Q1022
Loading
Personal Weather Stations






























Interactive Weather Map New forecast layout! Learn more

10-Day Weather Forecast

Advertisements
Track Severe Weather on mobile